Nowlin, SD

1:35 AM MDT on September 03, 2014 (GMT -0600)
Philip | Change Station
CLOSE
Current Station
Airport
Location: Philip,
Elevation: 2208 ft
Nearby Weather Stations

Elev 2208 ft 44.05 °N, 101.60 °W | Updated 40 minutes ago

Clear
Clear
53 °F
Feels Like 53 °F
N
0
Wind Variable Wind from North

Today
High -- | Low -- °F
--% Chance of Precip.
Yesterday
High -- | Low -- °F
Precip. -- in
6:10 AM 7:17 PM
First Quarter, 59% visible
Pressure 29.67 in
Visibility 10.0 miles
Clouds Clear
Dew Point 48 °F
Humidity 83%
Rainfall 0.00 in
Snow Depth Not available.
UV 0 out of 12
Pollen 9.10 out of 12
Air Quality Not available.
Flu Activity Not available.
METAR KPHP 030655Z AUTO 00000KT 10SM CLR 12/09 A2971 RMK AO2 SLP045 T01170089 402940094

More Conditions Fewer Conditions

Pressure 29.67 in
Visibility 10.0 miles
Clouds Clear
Dew Point 48 °F
Humidity 83%
Rainfall 0.00 in
Snow Depth Not available.
UV 0 out of 12
Pollen 9.10 out of 12
Air Quality Not available.
Flu Activity Not available.
METAR KPHP 030655Z AUTO 00000KT 10SM CLR 12/09 A2971 RMK AO2 SLP045 T01170089 402940094

More Conditions Fewer Conditions

10-Day Weather Forecast

Almanac

Astronomy

Sep. 03, 2014 Rise Set
Actual Time 6:10 AM MDT 7:17 PM MDT
Civil Twilight 5:40 AM MDT 7:47 PM MDT
Nautical Twilight 5:05 AM MDT 8:22 PM MDT
Astronomical Twilight 4:27 AM MDT 9:00 PM MDT
Moon 3:08 PM MDT No Moon Set
Length of Visible Light 14h 06m
Length of Day
13h 07m
Tomorrow will be 2m 57s shorter.
First Quarter, 59% of the Moon is Illuminated
Today
First Quarter
Sep 8
Full
Sep 15
Last Quarter
Sep 24
New
Oct 1
First Quarter

Today's Extremes

State Highs State Lows

Community

WunderPhotos

Upload Photos

1,749,891 photos uploaded!

Nearby

Snow Depth

Station Depth Elevation
North Rapid Creek 0 in 6130 ft
Blind Park 0 in 6890 ft

Earthquake Activity

City Distance Mag. Time & Date
No recent earthquake activity has been reported nearby.
Minimum magnitude displayed is 2.5.

Coastal Water Temperatures

Place Temperature
No Stations Reporting

Nearby Weather Stations